Time;durP1;ratioP1;P1;durP2;ratioP2;P2;SDS_P1;SDS_P2;PMS_P1;PMS_P2;Temp;Humidity;BMP_temperature;BMP_pressure;BME280_temperature;BME280_humidity;BME280_pressure;Samples;Min_cycle;Max_cycle;Signal;HPM_P1;HPM_P2
2022/06/25 00:01:22;;;;;;;65.23;46.53;;;;;;;;;;4988903;28;20097;-66
2022/06/25 00:03:48;;;;;;;55.40;43.33;;;;;;;;;;4989273;28;20051;-67
2022/06/25 00:06:15;;;;;;;54.60;41.43;;;;;;;;;;4988928;28;20078;-67
2022/06/25 00:08:44;;;;;;;65.47;45.83;;;;;;;;;;4989073;28;20053;-67
2022/06/25 00:12:31;;;;;;;55.60;41.53;;;;;;;;;;4988526;28;20913;-66
2022/06/25 00:14:03;;;;;;;66.13;44.17;;;;;;;;;;4988534;28;20054;-67
2022/06/25 00:16:29;;;;;;;45.77;36.17;;;;;;;;;;4988777;28;20436;-67
2022/06/25 00:18:55;;;;;;;51.43;40.00;;;;;;;;;;4988765;28;20039;-67
2022/06/25 00:21:21;;;;;;;52.13;38.23;;;;;;;;;;4986428;28;20055;-66
2022/06/25 00:23:47;;;;;;;62.73;40.67;;;;;;;;;;4988957;28;20105;-67
2022/06/25 00:26:13;;;;;;;55.33;41.80;;;;;;;;;;4989132;28;20050;-67
2022/06/25 00:28:39;;;;;;;58.17;42.40;;;;;;;;;;4988495;28;20500;-67
2022/06/25 00:31:05;;;;;;;53.70;39.37;;;;;;;;;;4990068;28;20054;-67
2022/06/25 00:33:34;;;;;;;66.67;44.97;;;;;;;;;;4992263;28;20057;-67
2022/06/25 00:36:00;;;;;;;52.13;38.43;;;;;;;;;;4990773;28;20057;-66
2022/06/25 00:38:26;;;;;;;48.47;37.37;;;;;;;;;;4991937;28;20046;-66
2022/06/25 00:40:52;;;;;;;69.03;44.93;;;;;;;;;;4992439;28;20080;-67
2022/06/25 00:43:18;;;;;;;72.43;45.10;;;;;;;;;;4992013;28;20070;-66
2022/06/25 00:45:45;;;;;;;45.23;36.47;;;;;;;;;;4992004;28;20050;-66
2022/06/25 00:48:11;;;;;;;51.07;37.50;;;;;;;;;;4992320;28;20132;-66
2022/06/25 00:50:37;;;;;;;46.27;37.17;;;;;;;;;;4991780;28;20799;-67
2022/06/25 00:53:04;;;;;;;44.93;36.43;;;;;;;;;;4992031;28;20508;-66
2022/06/25 00:55:31;;;;;;;57.67;40.00;;;;;;;;;;4992096;28;20405;-66
2022/06/25 00:58:00;;;;;;;48.17;36.77;;;;;;;;;;4991406;28;20079;-67
2022/06/25 01:00:28;;;;;;;54.27;40.30;;;;;;;;;;4991719;28;20041;-67
2022/06/25 01:02:54;;;;;;;46.10;35.40;;;;;;;;;;4992222;28;20044;-67
2022/06/25 01:05:20;;;;;;;46.13;36.43;;;;;;;;;;4992040;28;20038;-67
2022/06/25 01:07:47;;;;;;;44.13;34.03;;;;;;;;;;4991916;28;20109;-67
2022/06/25 01:10:13;;;;;;;40.03;29.67;;;;;;;;;;4992090;28;20089;-67
2022/06/25 01:12:40;;;;;;;38.60;30.77;;;;;;;;;;4991831;28;20544;-67
2022/06/25 01:15:10;;;;;;;42.43;32.57;;;;;;;;;;4991940;28;20085;-67
2022/06/25 01:17:41;;;;;;;44.67;32.63;;;;;;;;;;4991873;28;20039;-67
2022/06/25 01:20:11;;;;;;;36.73;29.70;;;;;;;;;;4991149;28;20497;-67
2022/06/25 01:22:37;;;;;;;37.17;29.67;;;;;;;;;;4991465;28;20586;-67
2022/06/25 01:25:04;;;;;;;41.30;31.73;;;;;;;;;;4991842;28;20046;-67
2022/06/25 01:27:30;;;;;;;34.57;29.47;;;;;;;;;;4991179;28;20078;-67
2022/06/25 01:29:56;;;;;;;34.60;28.97;;;;;;;;;;4991918;28;20074;-66
2022/06/25 01:32:22;;;;;;;39.33;30.23;;;;;;;;;;4991015;28;20579;-67
2022/06/25 01:34:48;;;;;;;30.53;26.27;;;;;;;;;;4991511;28;20050;-67
2022/06/25 01:37:14;;;;;;;33.50;26.73;;;;;;;;;;4990867;28;20051;-67
2022/06/25 01:39:40;;;;;;;34.43;25.73;;;;;;;;;;4991282;28;20085;-67
2022/06/25 01:42:06;;;;;;;25.53;22.50;;;;;;;;;;4991128;28;20050;-67
2022/06/25 01:44:36;;;;;;;32.83;25.90;;;;;;;;;;4991644;28;20054;-67
2022/06/25 01:47:02;;;;;;;31.93;26.47;;;;;;;;;;4990910;28;20050;-68
2022/06/25 01:49:28;;;;;;;30.00;23.77;;;;;;;;;;4991352;28;20046;-67
2022/06/25 01:51:54;;;;;;;33.83;27.07;;;;;;;;;;4990835;28;20560;-67
2022/06/25 01:54:23;;;;;;;42.60;31.87;;;;;;;;;;4991103;28;20173;-67
2022/06/25 01:56:49;;;;;;;41.77;30.20;;;;;;;;;;4990485;28;20952;-67
2022/06/25 01:59:15;;;;;;;34.97;27.43;;;;;;;;;;4991005;28;20086;-67
2022/06/25 02:01:41;;;;;;;33.93;28.43;;;;;;;;;;4990841;28;20082;-67
2022/06/25 02:04:07;;;;;;;37.60;27.67;;;;;;;;;;4990651;28;20116;-67
2022/06/25 02:06:35;;;;;;;32.20;26.33;;;;;;;;;;4990001;28;20104;-67
2022/06/25 02:09:04;;;;;;;35.10;27.37;;;;;;;;;;4990970;28;20046;-67
2022/06/25 02:11:30;;;;;;;32.87;26.70;;;;;;;;;;4990738;28;20049;-67
2022/06/25 02:13:58;;;;;;;37.83;28.33;;;;;;;;;;4989880;28;20053;-67
2022/06/25 02:16:27;;;;;;;34.00;27.53;;;;;;;;;;4990158;28;20058;-67
2022/06/25 02:18:53;;;;;;;30.63;26.13;;;;;;;;;;4990121;28;20054;-67
2022/06/25 02:21:19;;;;;;;32.87;25.90;;;;;;;;;;4990425;28;20054;-67
2022/06/25 02:23:45;;;;;;;32.67;27.53;;;;;;;;;;4990450;28;20504;-68
2022/06/25 02:26:11;;;;;;;38.87;30.20;;;;;;;;;;4990190;28;20046;-67
2022/06/25 02:28:40;;;;;;;36.60;27.67;;;;;;;;;;4990331;28;20074;-67
2022/06/25 02:31:08;;;;;;;33.67;25.73;;;;;;;;;;4990387;28;20042;-67
2022/06/25 02:33:37;;;;;;;36.20;27.10;;;;;;;;;;4990277;28;20058;-67
2022/06/25 02:39:25;;;;;;;38.10;29.20;;;;;;;;;;4990048;28;20057;-67
2022/06/25 02:41:51;;;;;;;30.70;25.97;;;;;;;;;;4990369;28;20045;-67
2022/06/25 02:47:31;;;;;;;33.97;27.58;;;;;;;;;;4989371;28;20053;-67
2022/06/25 02:50:00;;;;;;;35.33;26.67;;;;;;;;;;4990001;28;20501;-67
2022/06/25 02:52:27;;;;;;;34.93;26.03;;;;;;;;;;4987786;28;20054;-67
2022/06/25 02:54:53;;;;;;;42.07;28.47;;;;;;;;;;4970323;28;20133;-67
2022/06/25 03:00:09;;;;;;;39.17;29.53;;;;;;;;;;4960330;28;20057;-67
2022/06/25 03:02:35;;;;;;;34.67;27.40;;;;;;;;;;4971016;28;20397;-68
2022/06/25 03:05:04;;;;;;;37.93;27.43;;;;;;;;;;4990081;28;20046;-67
2022/06/25 03:07:31;;;;;;;31.83;25.77;;;;;;;;;;4987963;28;20038;-68
2022/06/25 03:09:59;;;;;;;31.93;26.40;;;;;;;;;;4989734;28;20052;-67
2022/06/25 03:12:25;;;;;;;40.07;30.20;;;;;;;;;;4989254;28;20188;-67
2022/06/25 03:14:54;;;;;;;43.40;31.13;;;;;;;;;;4989757;28;20133;-67
2022/06/25 03:17:20;;;;;;;34.73;26.87;;;;;;;;;;4989664;28;20212;-68
2022/06/25 03:20:20;;;;;;;32.90;25.93;;;;;;;;;;4988295;28;20050;-67
2022/06/25 03:22:49;;;;;;;35.50;27.90;;;;;;;;;;4969729;28;20078;-67
2022/06/25 03:25:18;;;;;;;31.70;26.07;;;;;;;;;;4969876;28;20117;-67
2022/06/25 03:27:44;;;;;;;41.03;29.37;;;;;;;;;;4969995;28;20066;-67
2022/06/25 03:30:12;;;;;;;35.07;27.70;;;;;;;;;;4969305;28;20038;-67
2022/06/25 03:32:38;;;;;;;39.27;28.70;;;;;;;;;;4969812;28;20042;-67
2022/06/25 03:35:07;;;;;;;37.43;29.03;;;;;;;;;;4968655;28;20070;-67
2022/06/25 03:37:33;;;;;;;36.50;27.90;;;;;;;;;;4969484;28;20093;-67
2022/06/25 03:43:37;;;;;;;39.73;28.40;;;;;;;;;;4969705;28;20050;-67
2022/06/25 03:46:04;;;;;;;36.83;27.47;;;;;;;;;;4951929;28;20421;-67
2022/06/25 03:51:52;;;;;;;32.13;24.93;;;;;;;;;;4969115;28;20102;-67
2022/06/25 03:54:24;;;;;;;25.07;21.40;;;;;;;;;;4968672;28;20042;-67
2022/06/25 03:56:52;;;;;;;31.90;24.37;;;;;;;;;;4969333;28;20436;-68
2022/06/25 03:59:21;;;;;;;26.57;22.83;;;;;;;;;;4969468;28;20126;-68
2022/06/25 04:01:47;;;;;;;34.63;24.67;;;;;;;;;;4969270;28;20401;-68
2022/06/25 04:04:14;;;;;;;30.33;23.33;;;;;;;;;;4969247;28;20082;-67
2022/06/25 04:06:40;;;;;;;27.30;22.13;;;;;;;;;;4954277;28;20742;-67
2022/06/25 04:09:06;;;;;;;34.80;24.77;;;;;;;;;;4956258;28;20134;-67
2022/06/25 04:11:32;;;;;;;29.00;24.40;;;;;;;;;;4972833;28;20047;-67
2022/06/25 04:13:58;;;;;;;28.37;23.80;;;;;;;;;;4973090;28;20121;-67
2022/06/25 04:16:24;;;;;;;41.50;26.90;;;;;;;;;;4972343;28;20062;-67
2022/06/25 04:18:56;;;;;;;36.00;24.97;;;;;;;;;;4973178;28;20043;-67
2022/06/25 04:21:22;;;;;;;27.00;22.03;;;;;;;;;;4971960;28;20089;-67
2022/06/25 04:23:48;;;;;;;37.50;24.73;;;;;;;;;;4972689;28;20051;-67
2022/06/25 04:26:14;;;;;;;23.53;20.03;;;;;;;;;;4972721;28;20137;-68
2022/06/25 04:31:28;;;;;;;25.27;20.90;;;;;;;;;;4972532;28;20055;-67
2022/06/25 04:33:57;;;;;;;29.87;22.83;;;;;;;;;;4972931;28;20133;-67
2022/06/25 04:36:23;;;;;;;25.90;19.83;;;;;;;;;;4971988;28;20621;-67
2022/06/25 04:38:53;;;;;;;21.53;16.77;;;;;;;;;;4971868;28;20078;-68
2022/06/25 04:41:19;;;;;;;23.43;17.40;;;;;;;;;;4972436;28;20061;-67
2022/06/25 04:43:45;;;;;;;22.57;19.20;;;;;;;;;;4972642;28;20046;-67
2022/06/25 04:46:11;;;;;;;27.17;19.77;;;;;;;;;;4955582;28;20051;-67
2022/06/25 04:48:39;;;;;;;18.57;16.13;;;;;;;;;;4972216;28;20055;-67
2022/06/25 04:51:05;;;;;;;22.63;16.97;;;;;;;;;;4972174;28;20054;-66
2022/06/25 04:53:31;;;;;;;19.90;15.70;;;;;;;;;;4972429;28;20047;-67
2022/06/25 04:55:57;;;;;;;22.13;18.00;;;;;;;;;;4972655;28;20050;-67
2022/06/25 04:58:23;;;;;;;17.27;14.27;;;;;;;;;;4972067;28;20051;-67
2022/06/25 05:00:49;;;;;;;19.57;17.47;;;;;;;;;;4972102;28;20054;-66
2022/06/25 05:03:17;;;;;;;22.23;17.60;;;;;;;;;;4972324;28;20051;-67
2022/06/25 05:05:43;;;;;;;27.10;20.83;;;;;;;;;;4940925;29;20474;-67
2022/06/25 05:08:09;;;;;;;21.33;14.80;;;;;;;;;;4952852;29;20050;-66
2022/06/25 05:10:36;;;;;;;22.57;18.50;;;;;;;;;;4952248;29;21119;-66
2022/06/25 05:13:14;;;;;;;16.67;13.17;;;;;;;;;;4961405;28;20047;-67
2022/06/25 05:15:43;;;;;;;17.10;15.13;;;;;;;;;;4971585;28;20121;-66
2022/06/25 05:18:09;;;;;;;17.17;14.70;;;;;;;;;;4970498;28;20057;-66
2022/06/25 05:20:39;;;;;;;18.23;15.57;;;;;;;;;;4954577;28;20497;-66
2022/06/25 05:23:08;;;;;;;19.93;14.87;;;;;;;;;;4972110;28;20137;-66
2022/06/25 05:25:37;;;;;;;22.33;18.03;;;;;;;;;;4971818;28;20046;-66
2022/06/25 05:28:04;;;;;;;17.43;14.37;;;;;;;;;;4971572;28;20051;-65
2022/06/25 05:30:30;;;;;;;20.87;15.83;;;;;;;;;;4971582;28;20505;-66
2022/06/25 05:32:56;;;;;;;14.77;13.13;;;;;;;;;;4971310;28;20598;-66
2022/06/25 05:35:22;;;;;;;13.97;12.20;;;;;;;;;;4972037;28;20039;-66
2022/06/25 05:37:48;;;;;;;14.20;12.70;;;;;;;;;;4971688;28;20039;-66
2022/06/25 05:40:15;;;;;;;12.90;11.47;;;;;;;;;;4954410;28;20137;-65
2022/06/25 05:42:41;;;;;;;15.53;13.17;;;;;;;;;;4971807;28;20050;-65
2022/06/25 05:45:08;;;;;;;19.73;13.37;;;;;;;;;;4971301;28;20050;-66
2022/06/25 05:47:34;;;;;;;14.80;11.20;;;;;;;;;;4954633;28;20155;-66
2022/06/25 05:50:00;;;;;;;14.57;10.30;;;;;;;;;;4971660;28;20507;-65
2022/06/25 05:52:27;;;;;;;13.77;11.97;;;;;;;;;;4971217;28;20047;-65
2022/06/25 05:54:53;;;;;;;20.60;12.67;;;;;;;;;;4971615;28;20109;-66
2022/06/25 05:57:19;;;;;;;11.60;10.40;;;;;;;;;;4954130;28;20058;-65
2022/06/25 05:59:45;;;;;;;11.93;9.83;;;;;;;;;;4971569;28;20381;-65
2022/06/25 06:02:11;;;;;;;11.20;9.90;;;;;;;;;;4967521;28;20046;-66
2022/06/25 06:04:38;;;;;;;11.53;9.80;;;;;;;;;;4979286;28;20146;-65
2022/06/25 06:07:04;;;;;;;9.87;8.97;;;;;;;;;;4990963;28;20052;-65
2022/06/25 06:09:32;;;;;;;15.33;9.87;;;;;;;;;;4973787;28;20134;-65
2022/06/25 06:11:58;;;;;;;9.73;8.33;;;;;;;;;;4971418;28;20046;-65
2022/06/25 06:14:24;;;;;;;12.80;9.70;;;;;;;;;;4971119;28;20054;-65
2022/06/25 06:16:50;;;;;;;13.67;8.63;;;;;;;;;;4971272;28;20043;-65
2022/06/25 06:19:16;;;;;;;11.97;10.10;;;;;;;;;;4971223;28;20050;-65
2022/06/25 06:21:43;;;;;;;9.70;6.60;;;;;;;;;;4970471;28;20138;-65
2022/06/25 06:24:09;;;;;;;9.50;6.83;;;;;;;;;;4953401;28;20509;-65
2022/06/25 06:26:35;;;;;;;9.50;6.63;;;;;;;;;;4970974;28;20050;-65
2022/06/25 06:29:01;;;;;;;10.97;6.57;;;;;;;;;;4952867;28;20054;-65
2022/06/25 06:31:27;;;;;;;9.93;7.77;;;;;;;;;;4970901;28;20104;-65
2022/06/25 06:33:53;;;;;;;7.93;5.50;;;;;;;;;;4970647;28;20054;-66
2022/06/25 06:36:19;;;;;;;8.53;5.80;;;;;;;;;;4970661;28;20472;-65
2022/06/25 06:38:46;;;;;;;9.83;5.07;;;;;;;;;;4970674;28;20043;-65
2022/06/25 06:41:13;;;;;;;6.77;5.37;;;;;;;;;;4970812;28;20098;-66
2022/06/25 06:43:39;;;;;;;5.93;5.10;;;;;;;;;;4970484;28;20913;-65
2022/06/25 06:46:05;;;;;;;7.70;5.70;;;;;;;;;;4970485;28;20054;-64
2022/06/25 06:48:31;;;;;;;6.97;4.63;;;;;;;;;;4970714;28;20045;-65
2022/06/25 06:50:57;;;;;;;7.70;4.97;;;;;;;;;;4965943;28;20428;-64
2022/06/25 06:53:23;;;;;;;6.23;4.30;;;;;;;;;;4953807;28;20049;-64
2022/06/25 06:55:50;;;;;;;7.33;4.40;;;;;;;;;;4970596;28;20054;-65
2022/06/25 06:58:16;;;;;;;7.53;4.50;;;;;;;;;;4970426;28;20057;-64
2022/06/25 07:00:42;;;;;;;7.60;3.73;;;;;;;;;;4963758;28;20046;-65
2022/06/25 07:03:08;;;;;;;6.80;3.60;;;;;;;;;;4970068;28;20035;-66
2022/06/25 07:05:34;;;;;;;7.53;3.33;;;;;;;;;;4970460;28;20515;-66
2022/06/25 07:08:00;;;;;;;4.83;3.37;;;;;;;;;;4970622;28;20054;-66
2022/06/25 07:10:26;;;;;;;7.37;3.80;;;;;;;;;;4970154;28;20497;-66
2022/06/25 07:12:53;;;;;;;6.77;3.87;;;;;;;;;;4969567;28;20054;-65
2022/06/25 07:15:19;;;;;;;5.40;3.43;;;;;;;;;;4970316;28;20066;-65
2022/06/25 07:17:45;;;;;;;5.20;3.40;;;;;;;;;;4952292;28;20453;-65
2022/06/25 07:20:12;;;;;;;7.83;3.33;;;;;;;;;;4969613;28;20085;-65
2022/06/25 07:22:38;;;;;;;6.03;3.50;;;;;;;;;;4969317;28;20059;-65
2022/06/25 07:25:04;;;;;;;5.13;3.07;;;;;;;;;;4951359;28;20082;-64
2022/06/25 07:27:30;;;;;;;7.73;2.50;;;;;;;;;;4950418;29;20083;-64
2022/06/25 07:29:57;;;;;;;4.50;2.80;;;;;;;;;;4950082;29;20127;-65
2022/06/25 07:32:23;;;;;;;8.30;2.80;;;;;;;;;;4950296;29;20398;-66
2022/06/25 07:34:49;;;;;;;6.73;2.50;;;;;;;;;;4949218;28;20094;-65
2022/06/25 07:37:15;;;;;;;4.90;2.77;;;;;;;;;;4959435;28;20109;-65
2022/06/25 07:39:41;;;;;;;8.13;3.30;;;;;;;;;;4969080;28;20116;-65
2022/06/25 07:42:07;;;;;;;4.57;2.40;;;;;;;;;;4952296;28;20063;-64
2022/06/25 07:44:33;;;;;;;6.87;2.97;;;;;;;;;;4969145;28;20050;-65
2022/06/25 07:46:59;;;;;;;3.70;2.30;;;;;;;;;;4969895;28;20054;-65
2022/06/25 07:49:25;;;;;;;5.67;2.37;;;;;;;;;;4969372;28;20054;-65
2022/06/25 07:51:57;;;;;;;7.70;2.40;;;;;;;;;;4969099;28;20049;-64
2022/06/25 07:54:30;;;;;;;7.10;2.10;;;;;;;;;;4969332;28;20604;-64
2022/06/25 07:56:57;;;;;;;6.40;2.70;;;;;;;;;;4969556;28;20568;-65
2022/06/25 07:59:23;;;;;;;4.97;2.07;;;;;;;;;;4969558;28;20793;-65
2022/06/25 08:01:49;;;;;;;5.57;2.10;;;;;;;;;;4969175;28;20038;-65
2022/06/25 08:04:15;;;;;;;5.97;1.67;;;;;;;;;;4969428;28;20058;-64
2022/06/25 08:06:43;;;;;;;4.23;2.60;;;;;;;;;;4968964;28;20437;-64
2022/06/25 08:09:09;;;;;;;4.63;2.20;;;;;;;;;;4969198;28;20102;-65
2022/06/25 08:11:36;;;;;;;4.10;1.80;;;;;;;;;;4969077;28;20505;-65
2022/06/25 08:14:02;;;;;;;5.83;1.93;;;;;;;;;;4969043;28;20050;-64
2022/06/25 08:16:28;;;;;;;3.33;1.90;;;;;;;;;;4968678;28;20081;-64
2022/06/25 08:18:55;;;;;;;4.87;1.70;;;;;;;;;;4952231;28;20050;-64
2022/06/25 08:21:21;;;;;;;5.67;1.97;;;;;;;;;;4968860;28;20097;-64
2022/06/25 08:23:47;;;;;;;4.73;2.00;;;;;;;;;;4969230;28;20047;-64
2022/06/25 08:26:15;;;;;;;5.17;2.13;;;;;;;;;;4968794;28;20133;-64
2022/06/25 08:28:41;;;;;;;4.23;1.90;;;;;;;;;;4968571;28;20090;-63
2022/06/25 08:31:07;;;;;;;4.57;2.10;;;;;;;;;;4969310;28;20042;-64
2022/06/25 08:33:33;;;;;;;8.33;2.43;;;;;;;;;;4969346;28;20041;-63
2022/06/25 08:35:59;;;;;;;4.87;1.90;;;;;;;;;;4968793;28;20054;-64
2022/06/25 08:38:25;;;;;;;6.30;1.70;;;;;;;;;;4968795;28;20046;-64
2022/06/25 08:40:58;;;;;;;5.70;2.73;;;;;;;;;;4969030;28;20074;-63
2022/06/25 08:43:24;;;;;;;7.15;2.25;;;;;;;;;;4949504;29;20047;-63
2022/06/25 08:45:50;;;;;;;4.93;1.70;;;;;;;;;;4949672;29;20035;-64
2022/06/25 08:48:19;;;;;;;5.93;1.83;;;;;;;;;;4949605;29;20142;-64
2022/06/25 08:50:45;;;;;;;4.70;1.30;;;;;;;;;;4961720;28;20066;-64
2022/06/25 08:53:12;;;;;;;5.72;1.52;;;;;;;;;;4971656;28;20046;-64
2022/06/25 08:55:39;;;;;;;3.50;1.42;;;;;;;;;;4971960;28;20061;-64
2022/06/25 08:58:05;;;;;;;4.70;1.60;;;;;;;;;;4967833;28;20075;-64
2022/06/25 09:00:32;;;;;;;6.57;1.35;;;;;;;;;;4953054;29;20502;-64
2022/06/25 09:03:00;;;;;;;3.97;1.20;;;;;;;;;;4952930;29;20047;-64
2022/06/25 09:05:27;;;;;;;3.63;1.27;;;;;;;;;;4952366;28;20047;-64
2022/06/25 09:07:54;;;;;;;3.45;1.35;;;;;;;;;;4952972;29;20485;-64
2022/06/25 09:10:21;;;;;;;5.78;1.77;;;;;;;;;;4952764;29;20047;-64
2022/06/25 09:12:58;;;;;;;4.25;0.90;;;;;;;;;;4966538;28;20515;-64
2022/06/25 09:15:44;;;;;;;2.03;0.80;;;;;;;;;;4971576;28;20046;-64
2022/06/25 09:18:17;;;;;;;2.83;1.20;;;;;;;;;;4972241;28;20077;-64
2022/06/25 09:20:56;;;;;;;3.10;1.00;;;;;;;;;;4971709;28;20173;-64
2022/06/25 09:23:23;;;;;;;2.65;1.20;;;;;;;;;;4971970;28;20083;-64
2022/06/25 09:26:00;;;;;;;4.10;1.55;;;;;;;;;;4971704;28;20053;-64
2022/06/25 09:28:35;;;;;;;2.60;1.27;;;;;;;;;;4969164;28;20074;-64
2022/06/25 09:31:02;;;;;;;4.00;1.30;;;;;;;;;;4971794;28;20409;-64
2022/06/25 09:33:29;;;;;;;4.38;1.02;;;;;;;;;;4971607;28;20078;-64
2022/06/25 09:35:55;;;;;;;4.20;0.82;;;;;;;;;;4971782;28;20066;-63
2022/06/25 09:38:22;;;;;;;3.15;1.00;;;;;;;;;;4971820;28;20043;-64
2022/06/25 09:40:57;;;;;;;5.07;0.98;;;;;;;;;;4970500;28;20047;-63
2022/06/25 09:43:24;;;;;;;5.80;1.10;;;;;;;;;;4971319;28;20118;-64
2022/06/25 09:45:52;;;;;;;3.47;0.95;;;;;;;;;;4971711;28;20155;-64
2022/06/25 09:48:18;;;;;;;3.20;1.10;;;;;;;;;;4971246;28;20445;-64
2022/06/25 09:50:45;;;;;;;5.00;1.30;;;;;;;;;;4971311;28;20788;-63
2022/06/25 09:53:11;;;;;;;7.03;2.00;;;;;;;;;;4970922;28;20073;-64
2022/06/25 09:55:37;;;;;;;3.00;1.10;;;;;;;;;;4970986;28;20468;-63
2022/06/25 09:58:04;;;;;;;2.22;1.02;;;;;;;;;;4971413;28;20078;-64
2022/06/25 10:00:30;;;;;;;5.32;1.00;;;;;;;;;;4970557;28;20043;-64
2022/06/25 10:02:57;;;;;;;5.68;1.30;;;;;;;;;;4971140;28;21105;-64
2022/06/25 10:05:30;;;;;;;5.32;1.10;;;;;;;;;;4970582;28;20039;-64
2022/06/25 10:08:01;;;;;;;3.15;0.90;;;;;;;;;;4970448;28;20055;-64
2022/06/25 10:10:29;;;;;;;2.50;0.93;;;;;;;;;;4967780;28;20620;-65
2022/06/25 10:12:55;;;;;;;5.00;1.23;;;;;;;;;;4964872;28;20062;-65
2022/06/25 10:15:23;;;;;;;4.05;1.10;;;;;;;;;;4970571;28;20046;-64
2022/06/25 10:17:54;;;;;;;4.18;1.45;;;;;;;;;;4970649;28;20057;-65
2022/06/25 10:20:20;;;;;;;3.75;1.27;;;;;;;;;;4970724;28;20494;-64
2022/06/25 10:22:47;;;;;;;3.30;1.00;;;;;;;;;;4970747;28;20101;-64
2022/06/25 10:25:14;;;;;;;3.63;0.88;;;;;;;;;;4970241;28;20093;-64
2022/06/25 10:27:44;;;;;;;4.05;1.17;;;;;;;;;;4970880;28;20142;-64
2022/06/25 10:30:11;;;;;;;3.58;1.27;;;;;;;;;;4970656;28;20049;-63
2022/06/25 10:32:49;;;;;;;3.45;1.30;;;;;;;;;;4969951;28;20053;-63
2022/06/25 10:35:34;;;;;;;3.72;1.63;;;;;;;;;;4970245;28;20513;-63
2022/06/25 10:38:05;;;;;;;3.58;1.08;;;;;;;;;;4969861;28;20053;-63
2022/06/25 10:40:33;;;;;;;2.42;0.95;;;;;;;;;;4970086;28;20113;-63
2022/06/25 10:43:03;;;;;;;5.25;1.10;;;;;;;;;;4970461;28;20047;-63
2022/06/25 10:45:32;;;;;;;4.88;1.05;;;;;;;;;;4970138;28;20046;-63
2022/06/25 10:47:59;;;;;;;5.18;1.60;;;;;;;;;;4970036;28;20064;-63
2022/06/25 10:50:25;;;;;;;3.15;1.20;;;;;;;;;;4969922;28;20397;-63
2022/06/25 10:53:03;;;;;;;3.35;1.15;;;;;;;;;;4970181;28;20047;-63
2022/06/25 10:55:58;;;;;;;3.15;0.93;;;;;;;;;;4970369;28;20117;-63
2022/06/25 10:58:25;;;;;;;4.05;1.23;;;;;;;;;;4953079;28;20154;-63
2022/06/25 11:01:01;;;;;;;3.45;1.15;;;;;;;;;;4970020;28;20050;-63
2022/06/25 11:03:27;;;;;;;2.85;1.13;;;;;;;;;;4970137;28;20055;-63
2022/06/25 11:05:54;;;;;;;3.20;1.10;;;;;;;;;;4968920;28;20049;-63
2022/06/25 11:08:23;;;;;;;4.10;1.08;;;;;;;;;;4969760;28;20047;-63
2022/06/25 11:10:49;;;;;;;2.05;1.00;;;;;;;;;;4969779;28;20050;-63
2022/06/25 11:13:15;;;;;;;2.92;0.90;;;;;;;;;;4969923;28;20564;-63
2022/06/25 11:15:42;;;;;;;3.15;1.05;;;;;;;;;;4969692;28;20387;-63
2022/06/25 11:18:09;;;;;;;2.90;1.23;;;;;;;;;;4969535;28;20191;-63
2022/06/25 11:20:36;;;;;;;1.95;0.98;;;;;;;;;;4968768;28;20572;-63
2022/06/25 11:23:05;;;;;;;3.05;0.95;;;;;;;;;;4969827;28;20081;-63
2022/06/25 11:31:17;;;;;;;4.95;0.80;;;;;;;;;;4969629;28;20062;-63
2022/06/25 11:33:43;;;;;;;4.00;1.40;;;;;;;;;;4969865;28;20090;-63
2022/06/25 11:36:10;;;;;;;6.38;1.85;;;;;;;;;;4969387;28;20051;-64
2022/06/25 11:38:36;;;;;;;3.10;1.23;;;;;;;;;;4969347;28;20109;-64
2022/06/25 11:41:03;;;;;;;4.60;1.40;;;;;;;;;;4968901;28;20130;-64
2022/06/25 11:43:29;;;;;;;3.85;1.20;;;;;;;;;;4969383;28;20047;-64
2022/06/25 11:45:59;;;;;;;2.42;1.30;;;;;;;;;;4969387;28;20051;-63
2022/06/25 11:48:26;;;;;;;3.75;1.13;;;;;;;;;;4969198;28;20501;-64
2022/06/25 11:51:10;;;;;;;2.67;1.30;;;;;;;;;;4969750;28;20070;-63
2022/06/25 11:53:36;;;;;;;8.02;1.35;;;;;;;;;;4969649;28;20047;-63
2022/06/25 11:56:04;;;;;;;4.47;1.83;;;;;;;;;;4968998;28;20053;-63
2022/06/25 11:58:34;;;;;;;2.40;1.23;;;;;;;;;;4969061;28;20493;-63
2022/06/25 12:01:01;;;;;;;5.40;1.40;;;;;;;;;;4969110;28;20046;-63
2022/06/25 12:03:28;;;;;;;4.72;2.13;;;;;;;;;;4969409;28;20047;-62
2022/06/25 12:05:55;;;;;;;5.13;1.88;;;;;;;;;;4969072;28;20047;-62
2022/06/25 12:08:22;;;;;;;4.55;1.20;;;;;;;;;;4968829;28;20062;-63
2022/06/25 12:10:49;;;;;;;2.30;1.17;;;;;;;;;;4969247;28;20525;-63
2022/06/25 12:13:15;;;;;;;4.93;1.90;;;;;;;;;;4968745;28;20054;-63
2022/06/25 12:15:42;;;;;;;1.45;1.00;;;;;;;;;;4969159;28;20051;-63
2022/06/25 12:18:08;;;;;;;4.22;1.73;;;;;;;;;;4968844;28;20082;-63
2022/06/25 12:20:34;;;;;;;7.05;1.50;;;;;;;;;;4968862;28;20058;-63
2022/06/25 12:23:01;;;;;;;5.20;1.65;;;;;;;;;;4969027;28;20051;-62
2022/06/25 12:25:28;;;;;;;3.72;1.23;;;;;;;;;;4969128;28;20047;-62
2022/06/25 12:27:54;;;;;;;2.70;1.35;;;;;;;;;;4971792;28;20070;-63
2022/06/25 12:30:33;;;;;;;2.95;1.45;;;;;;;;;;4972269;28;20046;-63
2022/06/25 12:33:06;;;;;;;2.83;0.98;;;;;;;;;;4972395;28;21055;-62
2022/06/25 12:35:33;;;;;;;8.43;1.38;;;;;;;;;;4972835;28;20077;-62
2022/06/25 12:38:06;;;;;;;4.30;1.48;;;;;;;;;;4972650;28;20059;-63
2022/06/25 12:40:40;;;;;;;3.05;1.17;;;;;;;;;;4972087;28;20442;-63
2022/06/25 12:43:06;;;;;;;2.50;1.10;;;;;;;;;;4972664;28;20043;-63
2022/06/25 12:45:36;;;;;;;2.75;1.15;;;;;;;;;;4972828;28;20452;-62
2022/06/25 12:48:03;;;;;;;3.05;1.08;;;;;;;;;;4972472;28;20409;-63
2022/06/25 12:50:30;;;;;;;2.55;1.25;;;;;;;;;;4972529;28;20043;-63
2022/06/25 12:52:57;;;;;;;6.10;1.50;;;;;;;;;;4972079;28;20078;-63
2022/06/25 12:55:25;;;;;;;3.30;1.10;;;;;;;;;;4972067;28;20118;-63
2022/06/25 12:57:52;;;;;;;3.35;1.25;;;;;;;;;;4972487;28;20062;-63
2022/06/25 13:00:22;;;;;;;2.80;1.20;;;;;;;;;;4971932;28;20757;-63
2022/06/25 13:02:48;;;;;;;2.38;1.20;;;;;;;;;;4972324;28;20051;-63
2022/06/25 13:05:18;;;;;;;2.80;1.13;;;;;;;;;;4972101;28;20057;-63
2022/06/25 13:07:44;;;;;;;3.85;1.85;;;;;;;;;;4971611;28;20106;-63
2022/06/25 13:10:11;;;;;;;4.50;1.60;;;;;;;;;;4971806;28;20043;-63
2022/06/25 13:12:38;;;;;;;4.13;1.50;;;;;;;;;;4972536;28;20080;-63
2022/06/25 13:15:05;;;;;;;2.92;1.42;;;;;;;;;;4971973;28;20386;-62
2022/06/25 13:17:31;;;;;;;2.83;1.30;;;;;;;;;;4971678;28;20051;-63
2022/06/25 13:19:57;;;;;;;4.70;1.73;;;;;;;;;;4972333;28;20065;-62
2022/06/25 13:22:23;;;;;;;2.65;1.52;;;;;;;;;;4976238;28;20058;-62
2022/06/25 13:24:49;;;;;;;2.58;1.60;;;;;;;;;;4990807;28;20132;-63
2022/06/25 13:27:15;;;;;;;3.22;1.67;;;;;;;;;;4991541;28;20046;-62
2022/06/25 13:29:44;;;;;;;4.15;1.30;;;;;;;;;;4989602;28;20567;-62
2022/06/25 13:32:10;;;;;;;5.60;1.60;;;;;;;;;;4990726;28;20046;-62
2022/06/25 13:34:36;;;;;;;2.72;1.35;;;;;;;;;;4990866;28;20196;-63
2022/06/25 13:37:03;;;;;;;2.92;1.50;;;;;;;;;;4990899;28;20050;-62
2022/06/25 13:39:29;;;;;;;3.05;1.67;;;;;;;;;;4990480;28;20113;-62
2022/06/25 13:41:55;;;;;;;2.83;1.73;;;;;;;;;;4990892;28;20061;-63
2022/06/25 13:44:22;;;;;;;2.65;1.60;;;;;;;;;;4990541;28;20093;-63
2022/06/25 13:46:48;;;;;;;5.18;1.40;;;;;;;;;;4990152;28;20046;-63
2022/06/25 13:49:14;;;;;;;4.70;1.60;;;;;;;;;;4990880;28;20621;-63
2022/06/25 13:51:40;;;;;;;4.07;1.67;;;;;;;;;;4990879;28;20508;-62
2022/06/25 13:54:07;;;;;;;2.67;1.40;;;;;;;;;;4990727;28;20377;-63
2022/06/25 13:56:33;;;;;;;2.80;1.00;;;;;;;;;;4990525;28;20053;-63
2022/06/25 13:58:59;;;;;;;2.17;1.15;;;;;;;;;;4990768;28;20901;-62
2022/06/25 14:01:26;;;;;;;4.05;1.25;;;;;;;;;;4990570;28;20146;-63
2022/06/25 14:03:52;;;;;;;2.97;1.23;;;;;;;;;;4990438;28;20042;-63
2022/06/25 14:06:18;;;;;;;2.20;1.20;;;;;;;;;;4990627;28;20042;-63
2022/06/25 14:08:44;;;;;;;2.67;1.27;;;;;;;;;;4990580;28;20077;-62
2022/06/25 14:11:11;;;;;;;1.67;1.05;;;;;;;;;;4990429;28;20093;-63
2022/06/25 14:13:37;;;;;;;2.88;1.00;;;;;;;;;;4989545;28;20463;-62
2022/06/25 14:16:03;;;;;;;3.95;1.10;;;;;;;;;;4990345;28;20466;-62
2022/06/25 14:18:29;;;;;;;3.60;1.15;;;;;;;;;;4989881;28;20043;-63
2022/06/25 14:20:55;;;;;;;3.83;1.20;;;;;;;;;;4985166;28;20117;-63
2022/06/25 14:23:22;;;;;;;4.18;1.38;;;;;;;;;;4971059;28;20571;-62
2022/06/25 14:25:48;;;;;;;4.25;1.63;;;;;;;;;;4970451;28;20425;-62
2022/06/25 14:28:16;;;;;;;5.05;1.00;;;;;;;;;;4970693;28;20099;-63
2022/06/25 14:30:42;;;;;;;3.17;1.25;;;;;;;;;;4970406;28;20605;-62
2022/06/25 14:33:08;;;;;;;4.50;1.45;;;;;;;;;;4970285;28;20500;-63
2022/06/25 14:35:35;;;;;;;2.08;0.98;;;;;;;;;;4970558;28;20195;-63
2022/06/25 14:43:31;;;;;;;1.65;1.02;;;;;;;;;;4969959;28;20394;-62
2022/06/25 14:45:57;;;;;;;1.48;0.90;;;;;;;;;;4970219;28;20524;-63
2022/06/25 14:48:23;;;;;;;3.45;1.30;;;;;;;;;;4970576;28;20050;-63
2022/06/25 14:50:49;;;;;;;4.07;0.98;;;;;;;;;;4969310;28;20070;-63
2022/06/25 14:53:15;;;;;;;3.13;0.90;;;;;;;;;;4969984;28;20047;-62
2022/06/25 14:55:41;;;;;;;2.03;0.80;;;;;;;;;;4970547;28;20196;-63
2022/06/25 14:58:08;;;;;;;1.83;0.70;;;;;;;;;;4969633;28;20077;-63
2022/06/25 15:00:34;;;;;;;1.90;0.90;;;;;;;;;;4970201;28;20050;-63
2022/06/25 15:03:00;;;;;;;3.78;1.23;;;;;;;;;;4970087;28;20056;-63
2022/06/25 15:05:28;;;;;;;2.65;1.00;;;;;;;;;;4952621;28;20412;-63